Soaring Guidance
Issued by NWS Reno, NV

Current Version | Previous Version | Text Only | Print | Product List | Glossary On
Versions: 1 2 3 4 5 6 7
000
UXUS97 KREV 251346
SRGREV

SOARING FORECAST
NATIONAL WEATHER SERVICE - RENO NV
700 AM PDT SUN SEP 25 2022

THIS SOARING FORECAST IS FOR THE EASTERN SIERRA AND WESTERN NEVADA
WITH SPECIFIC INDICES FOR THE GREATER RENO AREA.

THIS FORECAST IS PREPARED DAILY BY 700 AM AND IS NOT UPDATED.

FOR CURRENT FLIGHT CONDITIONS...FORECASTS...AND ADVISORIES...ACCESS
YOUR LOCAL BRIEFING OUTLET OR FLIGHT SERVICE STATION.

*******************************************************************
FORECASTED LOCAL INDICES FOR RENO:        TODAY     YESTERDAY
FORECASTED MAX TEMP AT RENO (DEG F).....     87          85
FORECASTED TRIGGER TEMPERATURE (DEG F)..     75          74
   EXCEEDED YESTERDAY BY 1255 PM PDT
FORECASTED MAXIMUM ALTITUDE (FT MSL)....  14200       12800
FORECASTED SOARING INDEX (FPM)..........    786         684
FORECASTED K-INDEX.........VALID 18Z....      7           7
FORECASTED K-INDEX.........VALID 00Z....     15          13
FORECASTED LIFTED INDEX....VALID 18Z....      6           6
FORECASTED LIFTED INDEX....VALID 00Z....      4           6

AFTERNOON WINDS ALOFT FORECAST
MSL (FT) WIND/TEMP
9000  9900/+15
10000 9903/+12
12000 2409/+06
14000 2210/+01
16000 2111/-04
18000 2115/-09
24000 2223/-22
30000 2342/-37
34000 2443/-46
39000 2342/-53

SLIDE MOUNTAIN DATA:
     DATE       TIME     TEMP  DEWPT   RH         WIND (MPH)
                        (F)   (F)           | DIR  SPEED GUST
2022-09-25    05:30      49    26     29    | 175    8   12
2022-09-25    05:20      48    26     29    | 175    7   10
2022-09-25    05:00      48    26     29    | 173    7   13
2022-09-25    04:50      48    26     28    | 160    9   15

SIERRA CREST 8700 FT DATA:
   DATE     TIME  TEMP  RH         WIND
                            DIR   SPEED   GUST
2022-09-25 0600   53   33   125      5      9
2022-09-25 0545   52   34   130      4      8
2022-09-25 0530   53   35   136      4      8
2022-09-25 0515   52   36   139      4      8

RENO TAF FORECAST:
KRNO 251120Z 2512/2612 VRB05KT P6SM SKC

CARSON CITY TAF FORECAST:
KCXP 251120Z 2512/2612 VRB03KT P6SM SKC
     FM252100 06006KT P6SM SKC
     FM260200 VRB03KT P6SM SKC

MINDEN TAF FORECAST:
KMEV 251120Z 2512/2612 VRB03KT P6SM SKC
     FM260000 33007KT P6SM SKC
     FM260300 VRB03KT P6SM SKC

OUTLOOK FOR THE RENO-CARSON CITY-MINDEN AREA:
.MONDAY...SUNNY. HIGHS 83 TO 88. LIGHT WINDS BECOMING SOUTHEAST
AROUND 10 MPH IN THE AFTERNOON.

SUNRISE AND SUNSET
SEPTEMBER 25 2022.....SUNRISE   650 AM PDT   SUNSET   651 PM PDT
SEPTEMBER 26 2022.....SUNRISE   651 AM PDT   SUNSET   649 PM PDT


USA.gov is the U.S. government's official web portal to all federal, state and local government web resources and services.